This is the latest recevied weather packets stored in our database for station/object KD2SIG. If no packets are shown the sender has not sent any weather packets the latest 10 day(s).
| Time | Temp. | Humidity | Pressure | Rain* | Wind** | Luminosity | Snow |
|---|---|---|---|---|---|---|---|
| 1777963407 | 17.78° C | 58% | 1002.4 hPa | 0 mm | - | 0 W/m² | - |
| 1777963106 | 18.33° C | 56% | 1002.4 hPa | 0 mm | - | 0 W/m² | - |
| 1777962801 | 17.78° C | 57% | 1002.6 hPa | 0 mm | - | 0 W/m² | - |
| 1777962498 | 17.78° C | 57% | 1002.5 hPa | 0 mm | - | 0 W/m² | - |
| 1777962196 | 17.78° C | 57% | 1002.6 hPa | 0 mm | - | 0 W/m² | - |
| 1777961892 | 17.22° C | 57% | 1002.6 hPa | 0 mm | - | 0 W/m² | - |
| 1777961591 | 17.78° C | 57% | 1002.5 hPa | 0 mm | - | 0 W/m² | - |
| 1777961287 | 17.22° C | 57% | 1002.6 hPa | 0 mm | - | 0 W/m² | - |
| 1777960856 | 16.67° C | 61% | 1002.6 hPa | 0 mm | - | 0 W/m² | - |
| 1777960551 | 16.67° C | 61% | 1002.6 hPa | 0 mm | - | 0 W/m² | - |
| 1777960248 | 16.11° C | 61% | 1003 hPa | 0 mm | - | 0 W/m² | - |
| 1777959945 | 15.56° C | 62% | 1003.1 hPa | 0 mm | - | 0 W/m² | - |
| 1777959643 | 15° C | 63% | 1003 hPa | 0 mm | - | 0 W/m² | - |
| 1777959340 | 15° C | 64% | 1003.1 hPa | 0 mm | - | 0 W/m² | - |
| 1777959037 | 14.44° C | 65% | 1003.1 hPa | 0 mm | - | 0 W/m² | - |
| 1777958734 | 14.44° C | 67% | 1003.2 hPa | 0 mm | - | 0 W/m² | - |
| 1777958432 | 13.33° C | 68% | 1003.2 hPa | 0 mm | - | 0 W/m² | - |
| 1777958128 | 12.22° C | 73% | 1003.1 hPa | 0 mm | - | 0 W/m² | - |
| 1777957826 | 11.11° C | 74% | 1003.3 hPa | 0 mm | - | 0 W/m² | - |
| 1777957524 | 11.11° C | 75% | 1003.1 hPa | 0 mm | - | 0 W/m² | - |
| 1777957222 | 11.11° C | 76% | 1003.1 hPa | 0 mm | - | 0 W/m² | - |
| 1777956917 | 11.11° C | 75% | 1002.9 hPa | 0 mm | - | 0 W/m² | - |
| 1777956615 | 11.67° C | 73% | 1003.2 hPa | 0 mm | - | 0 W/m² | - |
| 1777956312 | 11.67° C | 73% | 1003.3 hPa | 0 mm | - | 0 W/m² | - |
| 1777956009 | 11.11° C | 74% | 1003.2 hPa | 0 mm | - | 0 W/m² | - |
* Rain latest hour (hover to see other rain measurements)
** Current wind speed in m/s (hover to see current wind gust speed)